Terminal Aerodrome Forecast
Issued by NWS Brownsville, TX

Home | Current Version | Previous Version | Text Only | Print | Product List | Glossary On
Versions: 1 2 3 4 5 6 7 8 9 10 11 12 13 14 15 16
000
FTUS44 KBRO 242300
TAFHRL
TAF
KHRL 242339Z 2500/2524 04007KT P6SM FEW035
      TEMPO 2510/2514 4SM BR
     FM252000 08010KT P6SM FEW040=

USA.gov is the U.S. government's official web portal to all federal, state and local government web resources and services.